Terminal Aerodrome Forecast
Issued by NWS Burlington, VT

Home | Current Version | Previous Version | Text Only | Print | Product List | Glossary On
Versions: 1 2 3 4 5 6 7 8 9 10 11 12 13 14 15 16 17 18 19 20
000
FTUS41 KBTV 251736
TAFBTV
TAF
KBTV 251736Z 2518/2618 32014G20KT P6SM BKN035
     FM252300 33007KT P6SM SKC
     FM260500 VRB03KT P6SM SKC
     FM261200 04004KT P6SM BKN200=

USA.gov is the U.S. government's official web portal to all federal, state and local government web resources and services.